Time;durP1;ratioP1;P1;durP2;ratioP2;P2;SDS_P1;SDS_P2;PMS_P1;PMS_P2;Temp;Humidity;BMP_temperature;BMP_pressure;BME280_temperature;BME280_humidity;BME280_pressure;Samples;Min_cycle;Max_cycle;Signal;HPM_P1;HPM_P2
2021/10/23 00:01:51;;;;;;;3.05;1.33;;;-0.50;99.90;;;;;;5154816;27;20027;-67
2021/10/23 00:04:17;;;;;;;2.80;1.30;;;-0.40;99.90;;;;;;5155047;27;20102;-67
2021/10/23 00:06:43;;;;;;;4.57;1.40;;;-0.40;99.90;;;;;;5154674;27;20026;-67
2021/10/23 00:09:08;;;;;;;4.28;1.45;;;-0.40;99.90;;;;;;5154600;27;20163;-68
2021/10/23 00:11:34;;;;;;;5.38;1.20;;;-0.40;99.90;;;;;;5154531;27;20031;-67
2021/10/23 00:14:00;;;;;;;1.85;1.10;;;-0.50;99.90;;;;;;5154562;27;20030;-68
2021/10/23 00:16:26;;;;;;;3.65;1.10;;;-0.50;99.90;;;;;;5154394;27;20035;-68
2021/10/23 00:18:51;;;;;;;1.38;1.15;;;-0.50;99.90;;;;;;5154768;27;20018;-68
2021/10/23 00:21:17;;;;;;;2.67;1.23;;;-0.60;99.90;;;;;;5154316;27;20027;-68
2021/10/23 00:23:43;;;;;;;2.40;1.30;;;-0.60;99.90;;;;;;5154813;27;20026;-68
2021/10/23 00:26:08;;;;;;;4.85;1.48;;;-0.60;99.90;;;;;;5154200;27;20031;-68
2021/10/23 00:28:34;;;;;;;3.15;1.20;;;-0.50;99.90;;;;;;5154373;27;20019;-68
2021/10/23 00:31:00;;;;;;;4.97;1.30;;;-0.60;99.90;;;;;;5154215;27;20035;-68
2021/10/23 00:33:25;;;;;;;2.15;1.30;;;-0.60;99.90;;;;;;5154250;27;20025;-67
2021/10/23 00:35:51;;;;;;;1.90;1.10;;;-0.50;99.90;;;;;;5153950;27;20496;-68
2021/10/23 00:38:17;;;;;;;3.05;1.08;;;-0.60;99.90;;;;;;5154037;27;20022;-67
2021/10/23 00:40:43;;;;;;;2.05;1.23;;;-0.50;99.90;;;;;;5154488;27;20390;-67
2021/10/23 00:43:09;;;;;;;4.95;1.67;;;-0.60;99.90;;;;;;5154288;27;20026;-68
2021/10/23 00:45:35;;;;;;;4.22;1.13;;;-0.60;99.90;;;;;;5154327;27;20462;-65
2021/10/23 00:48:01;;;;;;;4.20;1.20;;;-0.60;99.90;;;;;;5153994;27;20411;-65
2021/10/23 00:50:26;;;;;;;1.83;1.27;;;-0.60;99.90;;;;;;5153782;27;20027;-65
2021/10/23 00:52:52;;;;;;;2.65;1.27;;;-0.70;99.90;;;;;;5154237;27;20410;-65
2021/10/23 00:55:20;;;;;;;2.33;1.27;;;-0.60;99.90;;;;;;5153622;27;20474;-65
2021/10/23 00:57:45;;;;;;;2.25;1.27;;;-0.60;99.90;;;;;;5153993;27;20066;-66
2021/10/23 01:00:11;;;;;;;3.50;1.30;;;-0.60;99.90;;;;;;5154187;27;20106;-65
2021/10/23 01:02:37;;;;;;;4.57;2.00;;;-0.60;99.90;;;;;;5153968;27;20073;-65
2021/10/23 01:05:05;;;;;;;5.03;1.85;;;-0.60;99.90;;;;;;5154238;27;20469;-65
2021/10/23 01:07:33;;;;;;;2.78;1.50;;;-0.60;99.90;;;;;;5153766;27;20030;-65
2021/10/23 01:10:00;;;;;;;6.50;1.60;;;-0.60;99.90;;;;;;5153919;27;20015;-65
2021/10/23 01:12:26;;;;;;;1.92;1.35;;;-0.60;99.90;;;;;;5153551;27;20053;-65
2021/10/23 01:14:52;;;;;;;1.92;1.13;;;-0.60;99.90;;;;;;5153723;27;20098;-65
2021/10/23 01:17:22;;;;;;;1.48;1.30;;;-0.60;99.90;;;;;;5153746;27;20118;-65
2021/10/23 01:19:53;;;;;;;2.30;1.50;;;-0.60;99.90;;;;;;5153677;27;20067;-65
2021/10/23 01:22:28;;;;;;;3.30;1.52;;;-0.60;99.90;;;;;;5153452;27;20030;-65
2021/10/23 01:24:54;;;;;;;2.97;1.50;;;-0.60;99.90;;;;;;5153644;27;20034;-65
2021/10/23 01:27:21;;;;;;;1.83;1.25;;;-0.60;99.90;;;;;;5153309;27;20030;-65
2021/10/23 01:29:46;;;;;;;2.30;1.33;;;-0.70;99.90;;;;;;5153569;27;20050;-65
2021/10/23 01:32:12;;;;;;;2.38;1.30;;;-0.60;99.90;;;;;;5153302;27;20081;-65
2021/10/23 01:34:38;;;;;;;3.33;1.10;;;-0.70;99.90;;;;;;5153828;27;20026;-65
2021/10/23 01:37:04;;;;;;;3.40;1.13;;;-0.70;99.90;;;;;;5153474;27;20122;-65
2021/10/23 01:39:33;;;;;;;2.33;1.13;;;-0.70;99.90;;;;;;5153303;27;20027;-64
2021/10/23 01:41:59;;;;;;;1.73;1.30;;;-0.70;99.90;;;;;;5153414;27;20019;-64
2021/10/23 01:44:29;;;;;;;1.60;1.27;;;-0.70;99.90;;;;;;5153527;27;20382;-64
2021/10/23 01:46:55;;;;;;;1.97;1.10;;;-0.80;99.90;;;;;;5153951;27;20033;-64
2021/10/23 01:49:21;;;;;;;1.35;1.20;;;-0.80;99.90;;;;;;5157407;27;20015;-64
2021/10/23 01:51:47;;;;;;;1.70;1.33;;;-0.80;99.90;;;;;;5157541;27;20035;-64
2021/10/23 01:54:13;;;;;;;5.38;1.40;;;-0.80;99.90;;;;;;5157547;27;20095;-64
2021/10/23 01:56:40;;;;;;;2.60;1.45;;;-0.70;99.90;;;;;;5157109;27;20050;-64
2021/10/23 01:59:07;;;;;;;3.28;1.20;;;-0.80;99.90;;;;;;5157383;27;20034;-64
2021/10/23 02:01:33;;;;;;;5.70;1.50;;;-0.70;99.90;;;;;;5157095;27;20098;-64
2021/10/23 02:03:59;;;;;;;2.85;1.40;;;-0.70;99.90;;;;;;5157249;27;20072;-64
2021/10/23 02:06:25;;;;;;;7.40;1.70;;;-0.70;99.90;;;;;;5157259;27;20019;-64
2021/10/23 02:08:51;;;;;;;3.60;1.08;;;-0.80;99.90;;;;;;5157091;27;20038;-65
2021/10/23 02:11:17;;;;;;;2.28;1.42;;;-0.70;99.90;;;;;;5156848;27;20425;-65
2021/10/23 02:13:43;;;;;;;3.15;1.10;;;-0.70;99.90;;;;;;5157042;27;20469;-65
2021/10/23 02:16:09;;;;;;;4.75;1.48;;;-0.70;99.90;;;;;;5157070;27;20110;-65
2021/10/23 02:18:36;;;;;;;5.28;1.27;;;-0.70;99.90;;;;;;5156947;27;20430;-65
2021/10/23 02:21:02;;;;;;;3.45;1.42;;;-0.70;99.90;;;;;;5157125;27;20093;-65
2021/10/23 02:23:28;;;;;;;2.60;1.20;;;-0.70;99.90;;;;;;5156748;27;20482;-65
2021/10/23 02:52:33;;;;;;;4.55;1.67;;;-0.80;99.90;;;;;;5155893;27;20405;-64
2021/10/23 02:54:58;;;;;;;2.22;1.10;;;-0.80;99.90;;;;;;5156073;27;20023;-64
2021/10/23 02:57:24;;;;;;;1.27;1.00;;;-0.70;99.90;;;;;;5156175;27;20547;-64
2021/10/23 02:59:50;;;;;;;1.48;1.30;;;-0.80;99.90;;;;;;5156201;27;20413;-64
2021/10/23 03:02:16;;;;;;;1.15;1.00;;;-0.80;99.90;;;;;;5156427;27;20023;-65
2021/10/23 03:04:42;;;;;;;1.40;1.30;;;-0.80;99.90;;;;;;5155868;27;20035;-65
2021/10/23 03:07:08;;;;;;;1.20;1.10;;;-0.80;99.90;;;;;;5155862;27;20035;-65
2021/10/23 03:09:34;;;;;;;1.30;1.10;;;-0.80;99.90;;;;;;5155900;27;20034;-65
2021/10/23 03:11:59;;;;;;;4.22;1.35;;;-0.90;99.90;;;;;;5155731;27;20035;-65
2021/10/23 03:14:25;;;;;;;2.75;1.08;;;-0.90;99.90;;;;;;5155873;27;20019;-65
2021/10/23 03:16:51;;;;;;;2.80;1.10;;;-0.90;99.90;;;;;;5155574;27;20118;-65
2021/10/23 03:19:17;;;;;;;6.22;1.10;;;-0.80;99.90;;;;;;5155885;27;20015;-65
2021/10/23 03:21:43;;;;;;;3.78;1.50;;;-0.80;99.90;;;;;;5155825;27;20019;-65
2021/10/23 03:24:09;;;;;;;2.97;1.17;;;-0.80;99.90;;;;;;5155605;27;20113;-65
2021/10/23 03:26:34;;;;;;;2.17;1.45;;;-0.90;99.90;;;;;;5155496;27;20098;-65
2021/10/23 03:29:01;;;;;;;3.35;1.00;;;-0.90;99.90;;;;;;5155494;27;20055;-65
2021/10/23 03:31:27;;;;;;;5.18;1.40;;;-0.80;99.90;;;;;;5155355;27;20068;-65
2021/10/23 03:33:52;;;;;;;2.03;1.50;;;-0.80;99.90;;;;;;5155686;27;20018;-65
2021/10/23 03:36:18;;;;;;;4.15;1.50;;;-0.80;99.90;;;;;;5155427;27;20033;-65
2021/10/23 03:38:44;;;;;;;1.70;1.23;;;-0.80;99.90;;;;;;5155192;27;20023;-65
2021/10/23 03:41:10;;;;;;;2.38;1.20;;;-0.80;99.90;;;;;;5155451;27;20071;-65
2021/10/23 03:43:36;;;;;;;4.22;1.23;;;-0.80;99.90;;;;;;5155426;27;20359;-65
2021/10/23 03:46:02;;;;;;;4.63;1.63;;;-0.80;99.90;;;;;;5155697;27;20085;-65
2021/10/23 03:48:27;;;;;;;4.05;1.35;;;-0.80;99.90;;;;;;5155261;27;20027;-64
2021/10/23 03:50:53;;;;;;;4.00;1.27;;;-0.90;99.90;;;;;;5155093;27;20611;-64
2021/10/23 03:53:19;;;;;;;4.95;1.00;;;-0.80;99.90;;;;;;5155428;27;20023;-64
2021/10/23 03:55:45;;;;;;;1.88;1.20;;;-0.90;99.90;;;;;;5154669;27;20039;-64
2021/10/23 03:58:11;;;;;;;2.30;1.17;;;-0.90;99.90;;;;;;5154940;27;20023;-65
2021/10/23 04:00:38;;;;;;;3.03;1.23;;;-1.00;99.90;;;;;;5154819;27;20019;-65
2021/10/23 04:03:04;;;;;;;1.25;0.98;;;-0.90;99.90;;;;;;5154877;27;20027;-65
2021/10/23 04:05:30;;;;;;;5.13;1.50;;;-0.90;99.90;;;;;;5154983;27;20381;-64
2021/10/23 04:07:55;;;;;;;4.82;1.30;;;-1.00;99.90;;;;;;5154694;27;20022;-65
2021/10/23 04:10:21;;;;;;;2.35;1.10;;;-1.00;99.90;;;;;;5154516;27;20068;-65
2021/10/23 04:12:47;;;;;;;1.42;1.10;;;-1.00;99.90;;;;;;5154583;27;20039;-65
2021/10/23 04:15:13;;;;;;;2.13;1.20;;;-1.00;99.90;;;;;;5154989;27;20019;-65
2021/10/23 04:17:39;;;;;;;2.35;1.20;;;-1.00;99.90;;;;;;5154625;27;20106;-65
2021/10/23 04:20:06;;;;;;;4.47;1.20;;;-1.10;99.90;;;;;;5154835;27;20484;-65
2021/10/23 04:22:32;;;;;;;2.90;1.02;;;-1.10;99.90;;;;;;5154371;27;20026;-65
2021/10/23 04:24:58;;;;;;;2.47;1.08;;;-1.00;99.90;;;;;;5154535;27;20134;-65
2021/10/23 04:27:24;;;;;;;2.47;1.00;;;-1.00;99.90;;;;;;5154350;27;20398;-64
2021/10/23 04:29:50;;;;;;;1.50;1.13;;;-1.00;99.90;;;;;;5154464;27;20027;-65
2021/10/23 04:32:15;;;;;;;5.40;1.20;;;-1.10;99.90;;;;;;5152938;27;20417;-64
2021/10/23 04:34:41;;;;;;;2.00;1.23;;;-1.10;99.90;;;;;;5154152;27;20023;-67
2021/10/23 04:37:07;;;;;;;3.00;1.10;;;-1.20;99.90;;;;;;5154237;27;20027;-67
2021/10/23 04:39:33;;;;;;;3.22;1.23;;;-0.60;99.90;;;;;;5139502;27;20023;-65
2021/10/23 04:41:59;;;;;;;3.53;1.40;;;2.20;99.90;;;;;;5133291;27;20144;-65
2021/10/23 04:44:25;;;;;;;1.83;1.02;;;1.90;99.90;;;;;;5146573;27;20034;-64
2021/10/23 04:46:51;;;;;;;2.50;0.98;;;0.90;99.90;;;;;;5150099;27;20029;-64
2021/10/23 04:49:17;;;;;;;3.25;1.00;;;0.10;99.90;;;;;;5133106;27;20019;-64
2021/10/23 04:51:42;;;;;;;1.75;1.15;;;-0.30;99.90;;;;;;5143961;27;20031;-65
2021/10/23 04:54:08;;;;;;;2.88;1.25;;;-0.60;99.90;;;;;;5139142;27;20022;-64
2021/10/23 04:56:34;;;;;;;2.47;1.13;;;-0.70;99.90;;;;;;5149278;27;20050;-65
2021/10/23 04:59:00;;;;;;;2.95;1.10;;;-0.80;99.90;;;;;;5150488;27;20470;-65
2021/10/23 05:01:27;;;;;;;2.83;1.10;;;-0.90;99.90;;;;;;5147667;27;20023;-65
2021/10/23 05:03:52;;;;;;;6.10;1.45;;;-1.00;99.90;;;;;;5135633;27;20015;-65
2021/10/23 05:06:18;;;;;;;7.03;1.05;;;-1.00;99.90;;;;;;5150538;27;20042;-65
2021/10/23 05:08:44;;;;;;;2.20;1.30;;;-1.10;99.90;;;;;;5144757;27;20019;-65
2021/10/23 05:11:10;;;;;;;1.85;1.02;;;-1.10;99.90;;;;;;5144941;27;20073;-64
2021/10/23 05:13:36;;;;;;;1.17;1.00;;;-1.20;99.90;;;;;;5142190;27;20067;-65
2021/10/23 05:16:02;;;;;;;1.30;1.20;;;-1.20;99.90;;;;;;5133407;28;20020;-64
2021/10/23 05:18:28;;;;;;;3.25;1.23;;;-1.30;99.90;;;;;;5133076;28;20019;-65
2021/10/23 05:20:54;;;;;;;1.50;1.20;;;-1.30;99.90;;;;;;5133109;27;20474;-64
2021/10/23 05:23:20;;;;;;;3.95;1.10;;;-1.10;99.90;;;;;;5136085;27;20027;-64
2021/10/23 05:25:46;;;;;;;2.65;1.25;;;-1.10;99.90;;;;;;5137396;27;20023;-64
2021/10/23 05:28:12;;;;;;;1.30;1.10;;;-1.20;99.90;;;;;;5137099;27;20035;-64
2021/10/23 05:30:38;;;;;;;4.07;1.10;;;-1.20;99.90;;;;;;5137251;27;20034;-64
2021/10/23 05:33:04;;;;;;;1.67;1.15;;;-1.30;99.90;;;;;;5137378;27;20034;-64
2021/10/23 05:35:30;;;;;;;4.30;1.10;;;-1.30;99.90;;;;;;5137092;27;20096;-64
2021/10/23 05:37:56;;;;;;;5.32;1.20;;;-1.30;99.90;;;;;;5136816;27;20031;-64
2021/10/23 05:40:21;;;;;;;1.63;1.23;;;-1.20;99.90;;;;;;5137253;27;20045;-65
2021/10/23 05:42:47;;;;;;;3.40;1.10;;;-1.30;99.90;;;;;;5136575;27;20046;-65
2021/10/23 05:45:13;;;;;;;1.27;1.17;;;-0.70;99.90;;;;;;5136895;27;20086;-65
2021/10/23 05:47:39;;;;;;;1.20;1.00;;;-0.80;99.90;;;;;;5136550;27;20015;-66
2021/10/23 05:50:07;;;;;;;2.35;1.40;;;-1.00;99.90;;;;;;5136772;27;20011;-65
2021/10/23 05:52:33;;;;;;;2.15;1.20;;;-1.10;99.90;;;;;;5144585;27;20037;-66
2021/10/23 05:54:59;;;;;;;2.90;1.17;;;-1.30;99.90;;;;;;5141820;27;20020;-66
2021/10/23 05:57:25;;;;;;;2.65;1.45;;;-1.40;99.90;;;;;;5136645;27;20042;-65
2021/10/23 05:59:51;;;;;;;3.90;1.20;;;-1.50;99.90;;;;;;5136503;27;20102;-65
2021/10/23 06:02:29;;;;;;;1.75;1.10;;;-1.60;99.90;;;;;;5135252;27;20497;-64
2021/10/23 06:04:58;;;;;;;2.60;1.27;;;-1.60;99.90;;;;;;5136342;27;20070;-64
2021/10/23 06:07:26;;;;;;;1.58;1.10;;;-1.60;99.90;;;;;;5136404;27;20064;-64
2021/10/23 06:09:53;;;;;;;3.17;1.30;;;-1.60;99.90;;;;;;5136199;27;20075;-64
2021/10/23 06:12:20;;;;;;;3.58;1.20;;;-1.70;99.90;;;;;;5136471;27;20035;-64
2021/10/23 06:14:46;;;;;;;3.55;1.10;;;-1.70;99.90;;;;;;5136101;27;20103;-65
2021/10/23 06:17:11;;;;;;;2.17;1.27;;;-1.70;99.90;;;;;;5136062;27;20050;-65
2021/10/23 06:19:38;;;;;;;3.42;1.27;;;-1.70;99.90;;;;;;5136379;27;20020;-65
2021/10/23 06:22:05;;;;;;;2.85;1.23;;;-1.70;99.90;;;;;;5136048;27;20019;-65
2021/10/23 06:24:31;;;;;;;1.67;1.15;;;-1.70;99.90;;;;;;5136177;27;20467;-65
2021/10/23 06:26:57;;;;;;;2.22;1.25;;;-1.70;99.90;;;;;;5136109;27;20035;-64
2021/10/23 06:29:23;;;;;;;2.33;1.45;;;-1.80;99.90;;;;;;5136103;27;20026;-65
2021/10/23 06:31:49;;;;;;;1.77;1.10;;;-1.80;99.90;;;;;;5135992;27;20360;-65
2021/10/23 06:34:14;;;;;;;1.33;1.17;;;-1.80;99.90;;;;;;5135486;27;20090;-65
2021/10/23 06:36:40;;;;;;;2.35;1.45;;;-1.80;99.90;;;;;;5135806;27;20371;-69
2021/10/23 06:39:06;;;;;;;6.60;1.73;;;-1.80;99.90;;;;;;5135915;27;20023;-68
2021/10/23 06:41:35;;;;;;;5.28;1.55;;;-1.70;99.90;;;;;;5136165;27;20368;-68
2021/10/23 06:44:00;;;;;;;5.13;1.55;;;-1.80;99.90;;;;;;5135656;27;20015;-68
2021/10/23 06:46:26;;;;;;;2.40;1.42;;;-1.80;99.90;;;;;;5133980;27;20108;-68
2021/10/23 06:48:52;;;;;;;2.10;1.65;;;-1.80;99.90;;;;;;5135202;27;20065;-68
2021/10/23 06:51:18;;;;;;;2.38;1.50;;;-1.80;99.90;;;;;;5131497;27;20118;-68
2021/10/23 06:53:44;;;;;;;4.05;1.50;;;-1.80;99.90;;;;;;5134594;27;20095;-68
2021/10/23 06:56:10;;;;;;;2.92;1.25;;;-1.80;99.90;;;;;;5134719;27;20092;-67
2021/10/23 06:58:35;;;;;;;2.50;1.50;;;-1.70;99.90;;;;;;5135289;27;20106;-66
2021/10/23 07:01:04;;;;;;;2.55;1.25;;;-1.70;99.90;;;;;;5134769;27;20103;-66
2021/10/23 07:03:30;;;;;;;1.40;1.30;;;-1.70;99.90;;;;;;5134813;27;20015;-66
2021/10/23 07:05:55;;;;;;;3.25;1.73;;;-1.70;99.90;;;;;;5134593;27;20079;-66
2021/10/23 07:08:21;;;;;;;3.20;1.60;;;-1.70;99.90;;;;;;5134736;27;20106;-66
2021/10/23 07:10:47;;;;;;;2.58;1.85;;;-1.70;99.90;;;;;;5134423;27;20027;-63
2021/10/23 07:13:13;;;;;;;3.08;2.00;;;-1.70;99.90;;;;;;5134788;27;20015;-62
2021/10/23 07:15:39;;;;;;;3.25;1.88;;;-1.70;99.90;;;;;;5134577;27;20022;-62
2021/10/23 07:18:05;;;;;;;2.13;1.80;;;-1.60;99.90;;;;;;5134689;27;20032;-62
2021/10/23 07:20:32;;;;;;;5.88;2.40;;;-1.60;99.90;;;;;;5134526;27;20011;-63
2021/10/23 07:22:58;;;;;;;8.98;4.50;;;-1.60;99.90;;;;;;5134216;27;20474;-62
2021/10/23 07:25:26;;;;;;;5.10;2.40;;;-1.60;99.90;;;;;;5134551;27;20053;-63
2021/10/23 07:27:51;;;;;;;2.17;1.85;;;-1.70;99.90;;;;;;5134004;27;20046;-63
2021/10/23 07:30:18;;;;;;;4.60;2.53;;;-1.70;99.90;;;;;;5134394;27;20486;-62
2021/10/23 07:32:43;;;;;;;22.33;10.70;;;-1.70;99.90;;;;;;5143089;27;20478;-62
2021/10/23 07:35:10;;;;;;;24.70;11.00;;;-1.70;99.90;;;;;;5144935;27;20021;-63
2021/10/23 07:37:37;;;;;;;12.05;6.03;;;-1.50;99.90;;;;;;5137001;27;20363;-64
2021/10/23 07:40:05;;;;;;;9.77;4.05;;;-1.40;99.90;;;;;;5139188;27;20059;-63
2021/10/23 07:42:31;;;;;;;4.88;2.45;;;-1.40;99.90;;;;;;5141317;27;20026;-63
2021/10/23 07:44:58;;;;;;;5.93;2.47;;;-1.50;99.90;;;;;;5137823;27;20076;-63
2021/10/23 07:47:24;;;;;;;21.65;8.45;;;-1.50;99.90;;;;;;5133439;27;20019;-65
2021/10/23 07:49:50;;;;;;;28.40;11.20;;;-1.50;99.90;;;;;;5132582;27;20026;-64
2021/10/23 07:52:19;;;;;;;15.68;7.45;;;-1.50;99.90;;;;;;5140816;27;20118;-64
2021/10/23 07:54:45;;;;;;;9.10;3.22;;;-1.60;99.90;;;;;;5140253;27;20022;-63
2021/10/23 07:57:11;;;;;;;3.83;1.95;;;-1.50;99.90;;;;;;5154726;27;20050;-63
2021/10/23 07:59:37;;;;;;;1.45;1.20;;;-1.50;99.90;;;;;;5146159;27;20019;-63
2021/10/23 08:02:03;;;;;;;2.90;1.30;;;-1.50;99.90;;;;;;5139006;27;20110;-63
2021/10/23 08:04:30;;;;;;;3.45;1.42;;;-1.50;99.90;;;;;;5136526;27;20014;-63
2021/10/23 08:07:00;;;;;;;5.30;1.67;;;-1.40;99.90;;;;;;5136990;27;20042;-63
2021/10/23 08:09:28;;;;;;;5.18;1.65;;;-1.40;99.90;;;;;;5133887;27;20439;-64
2021/10/23 08:11:54;;;;;;;3.38;2.00;;;-1.40;99.90;;;;;;5133226;27;20124;-63
2021/10/23 08:14:20;;;;;;;3.33;1.42;;;-1.40;99.90;;;;;;5132076;27;20401;-63
2021/10/23 08:16:46;;;;;;;1.40;1.27;;;-1.30;99.90;;;;;;5133423;27;20022;-63
2021/10/23 08:19:11;;;;;;;2.35;1.20;;;-1.30;99.90;;;;;;5133331;27;20421;-65
2021/10/23 08:21:38;;;;;;;2.20;1.15;;;-1.30;99.90;;;;;;5133317;27;20081;-64
2021/10/23 08:24:04;;;;;;;1.75;1.17;;;-1.30;99.90;;;;;;5133028;27;20019;-65
2021/10/23 08:26:30;;;;;;;1.95;1.25;;;-0.70;99.90;;;;;;5131951;27;20023;-68
2021/10/23 08:28:55;;;;;;;6.97;1.50;;;0.80;99.90;;;;;;5132952;27;20046;-70
2021/10/23 08:31:22;;;;;;;2.38;1.17;;;2.00;99.90;;;;;;5132832;27;20039;-68
2021/10/23 08:33:48;;;;;;;1.88;1.30;;;2.60;99.90;;;;;;5132769;27;20047;-68
2021/10/23 08:36:14;;;;;;;2.75;1.30;;;3.00;99.90;;;;;;5132040;27;20059;-68
2021/10/23 08:38:40;;;;;;;1.92;1.40;;;3.20;99.90;;;;;;5131326;27;20027;-69
2021/10/23 08:41:07;;;;;;;2.80;1.58;;;3.40;99.90;;;;;;5132621;27;20064;-67
2021/10/23 08:43:34;;;;;;;2.25;1.50;;;3.60;99.90;;;;;;5132816;27;20454;-65
2021/10/23 08:46:03;;;;;;;5.78;2.35;;;3.90;99.90;;;;;;5132528;27;20479;-66
2021/10/23 08:48:30;;;;;;;2.50;1.60;;;5.20;99.90;;;;;;5133512;27;20027;-65
2021/10/23 08:51:00;;;;;;;2.25;1.30;;;5.60;99.90;;;;;;5133412;27;20023;-65
2021/10/23 08:53:28;;;;;;;1.83;1.25;;;5.10;99.90;;;;;;5133325;27;20039;-66
2021/10/23 08:55:56;;;;;;;2.72;1.38;;;3.90;99.90;;;;;;5132499;27;20107;-65
2021/10/23 08:58:22;;;;;;;5.32;1.52;;;3.00;99.90;;;;;;5132997;27;20062;-68
2021/10/23 09:00:48;;;;;;;2.28;1.20;;;2.40;99.90;;;;;;5133068;27;20062;-65
2021/10/23 09:03:14;;;;;;;6.38;1.70;;;2.00;99.90;;;;;;5133040;27;20386;-65
2021/10/23 09:05:40;;;;;;;2.50;1.20;;;1.70;99.90;;;;;;5133007;27;20062;-65
2021/10/23 09:08:17;;;;;;;4.50;1.02;;;1.50;99.90;;;;;;5136045;27;20026;-65
2021/10/23 09:10:48;;;;;;;3.55;1.45;;;1.30;99.90;;;;;;5133665;27;20035;-65
2021/10/23 09:13:24;;;;;;;;;;;1.20;99.90;;;;;;5133506;27;20054;-65
2021/10/23 09:15:50;;;;;;;2.55;1.10;;;1.10;99.90;;;;;;5132875;27;19913;-64
2021/10/23 09:18:15;;;;;;;3.35;1.65;;;1.00;99.90;;;;;;5133178;27;20114;-65
2021/10/23 09:20:43;;;;;;;1.38;1.23;;;0.90;99.90;;;;;;5132754;28;20031;-65
2021/10/23 09:23:17;;;;;;;2.55;1.20;;;0.80;99.90;;;;;;5133161;28;20015;-65
2021/10/23 09:25:44;;;;;;;2.45;1.17;;;0.80;99.90;;;;;;5133085;28;20019;-65
2021/10/23 09:28:12;;;;;;;0.70;0.70;;;0.70;99.90;;;;;;5132557;27;20007;-65
2021/10/23 09:30:45;;;;;;;2.72;1.10;;;0.60;99.90;;;;;;5132867;27;20027;-65
2021/10/23 09:33:19;;;;;;;2.67;0.98;;;0.40;99.90;;;;;;5133062;28;20030;-65
2021/10/23 09:36:03;;;;;;;3.03;0.90;;;0.40;99.90;;;;;;5132625;28;20020;-65
2021/10/23 09:38:31;;;;;;;1.73;1.00;;;0.40;99.90;;;;;;5140933;27;20038;-65
2021/10/23 09:41:12;;;;;;;3.58;1.00;;;0.50;99.90;;;;;;5153346;27;20376;-65
2021/10/23 09:43:38;;;;;;;1.60;0.98;;;0.50;99.90;;;;;;5153379;27;20023;-65
2021/10/23 09:46:08;;;;;;;2.17;1.10;;;0.50;99.90;;;;;;5153205;27;20033;-65
2021/10/23 09:48:53;;;;;;;1.58;0.90;;;0.60;99.90;;;;;;5153261;27;20015;-65
2021/10/23 09:51:29;;;;;;;1.70;1.10;;;0.70;99.90;;;;;;5149695;27;20502;-65
2021/10/23 09:54:00;;;;;;;1.20;0.85;;;0.70;99.90;;;;;;5153420;27;20042;-65
2021/10/23 09:56:27;;;;;;;1.63;0.90;;;0.80;99.90;;;;;;5153123;27;20046;-65
2021/10/23 09:58:55;;;;;;;1.77;0.88;;;0.90;99.90;;;;;;5153125;27;20041;-65
2021/10/23 10:01:50;;;;;;;1.23;0.75;;;0.90;99.90;;;;;;5153240;27;20436;-65
2021/10/23 10:04:17;;;;;;;4.15;1.10;;;1.00;99.90;;;;;;5150725;27;20087;-65
2021/10/23 10:06:46;;;;;;;0.75;0.70;;;1.00;99.90;;;;;;5153345;27;20019;-65
2021/10/23 10:09:12;;;;;;;1.95;0.70;;;1.00;99.90;;;;;;5156081;27;20031;-65
2021/10/23 10:11:39;;;;;;;0.93;0.70;;;1.00;99.90;;;;;;5157320;27;20041;-65
2021/10/23 10:14:07;;;;;;;2.03;0.80;;;1.00;99.90;;;;;;5156583;27;20031;-65
2021/10/23 10:16:32;;;;;;;4.10;0.90;;;1.00;99.90;;;;;;5156945;27;20473;-65
2021/10/23 10:18:58;;;;;;;3.25;0.80;;;1.10;99.90;;;;;;5145254;27;20034;-65
2021/10/23 10:21:25;;;;;;;1.73;0.98;;;1.10;99.90;;;;;;5136225;27;20025;-65
2021/10/23 10:23:53;;;;;;;1.10;1.02;;;1.20;99.90;;;;;;5135733;27;20113;-65
2021/10/23 10:26:30;;;;;;;1.35;1.00;;;1.20;99.90;;;;;;5136322;27;20482;-65
2021/10/23 10:29:22;;;;;;;1.52;0.90;;;1.20;99.90;;;;;;5135853;27;20050;-65
2021/10/23 10:42:55;;;;;;;3.55;1.00;;;1.30;99.90;;;;;;5136259;27;20031;-65
2021/10/23 10:45:51;;;;;;;3.08;1.00;;;1.30;99.90;;;;;;5135801;27;20023;-65
2021/10/23 10:48:26;;;;;;;1.83;0.90;;;1.40;99.90;;;;;;5135764;27;20023;-65
2021/10/23 10:51:04;;;;;;;4.97;1.10;;;1.40;99.90;;;;;;5135486;27;20022;-65
2021/10/23 10:53:38;;;;;;;3.58;1.45;;;1.40;99.90;;;;;;5138661;27;20038;-65
2021/10/23 10:56:14;;;;;;;4.18;1.40;;;1.40;99.90;;;;;;5149743;27;20078;-66
2021/10/23 10:58:57;;;;;;;1.50;1.00;;;1.40;99.90;;;;;;5156225;27;20066;-66
2021/10/23 11:01:29;;;;;;;3.65;1.10;;;1.40;99.90;;;;;;5141837;27;20404;-66
2021/10/23 11:04:11;;;;;;;2.00;1.00;;;1.40;99.90;;;;;;5134288;27;20492;-65
2021/10/23 11:06:45;;;;;;;4.28;1.20;;;1.40;99.90;;;;;;5149426;27;20023;-65
2021/10/23 11:09:20;;;;;;;2.15;1.00;;;1.40;99.90;;;;;;5156202;27;20034;-65
2021/10/23 11:14:24;;;;;;;2.70;0.80;;;1.40;99.90;;;;;;5135206;27;20023;-65
2021/10/23 11:19:25;;;;;;;3.22;0.90;;;1.40;99.90;;;;;;5154820;27;20095;-65
2021/10/23 11:22:04;;;;;;;2.20;0.90;;;1.40;99.90;;;;;;5142080;27;20019;-65
2021/10/23 11:24:30;;;;;;;2.28;1.00;;;1.40;99.90;;;;;;5138024;27;20034;-65
2021/10/23 11:26:57;;;;;;;3.13;1.02;;;1.40;99.90;;;;;;5134716;27;20106;-65
2021/10/23 11:29:27;;;;;;;2.00;1.00;;;1.50;99.90;;;;;;5134860;27;20463;-65
2021/10/23 11:32:01;;;;;;;3.53;1.05;;;1.50;99.90;;;;;;5134696;27;20100;-65
2021/10/23 11:34:28;;;;;;;1.48;0.82;;;1.50;99.90;;;;;;5134846;27;20029;-65
2021/10/23 11:37:11;;;;;;;3.05;2.13;;;1.50;99.90;;;;;;5134650;27;20062;-65
2021/10/23 11:39:41;;;;;;;1.85;0.80;;;1.50;99.90;;;;;;5134799;27;20039;-65
2021/10/23 11:42:37;;;;;;;2.80;1.30;;;1.50;99.90;;;;;;5134526;27;20046;-65
2021/10/23 11:45:21;;;;;;;1.27;1.05;;;1.50;99.90;;;;;;5132877;27;20550;-66
2021/10/23 11:47:48;;;;;;;1.20;1.10;;;1.50;99.90;;;;;;5134490;27;20497;-66
2021/10/23 11:50:20;;;;;;;3.55;1.20;;;1.50;99.90;;;;;;5134471;27;20019;-65
2021/10/23 11:53:04;;;;;;;2.40;1.13;;;1.50;99.90;;;;;;5134374;27;20580;-69
2021/10/23 11:55:41;;;;;;;0.75;0.75;;;1.70;99.90;;;;;;5134257;27;20671;-66
2021/10/23 11:58:13;;;;;;;2.95;1.00;;;2.30;99.90;;;;;;5134435;27;20023;-66
2021/10/23 12:00:41;;;;;;;6.90;1.00;;;2.50;99.90;;;;;;5134091;27;20534;-66
2021/10/23 12:03:10;;;;;;;7.05;2.13;;;2.20;99.90;;;;;;5134096;27;20547;-69
2021/10/23 12:05:50;;;;;;;2.95;1.30;;;2.40;99.90;;;;;;5134539;27;20100;-66
2021/10/23 12:08:24;;;;;;;2.47;1.00;;;5.90;99.90;;;;;;5139667;27;20053;-66
2021/10/23 12:11:05;;;;;;;4.80;0.90;;;6.20;99.90;;;;;;5145872;27;20030;-66
2021/10/23 12:13:44;;;;;;;1.15;1.00;;;5.10;99.90;;;;;;5154725;27;20052;-66
2021/10/23 12:16:11;;;;;;;2.33;1.00;;;4.30;99.90;;;;;;5154592;27;20656;-66
2021/10/23 12:18:38;;;;;;;2.65;1.13;;;3.60;99.90;;;;;;5152234;27;20439;-65
2021/10/23 12:21:19;;;;;;;4.07;1.02;;;3.20;99.90;;;;;;5144640;27;20083;-65
2021/10/23 12:23:49;;;;;;;3.80;1.15;;;3.00;99.90;;;;;;5139899;27;20094;-65
2021/10/23 12:26:17;;;;;;;1.27;0.90;;;2.80;99.90;;;;;;5146946;27;20031;-65
2021/10/23 12:29:01;;;;;;;0.80;0.80;;;2.70;99.90;;;;;;5143609;27;20015;-66
2021/10/23 12:31:56;;;;;;;1.33;0.90;;;2.60;99.90;;;;;;5142604;27;20088;-65
2021/10/23 12:34:26;;;;;;;5.35;1.25;;;2.40;99.90;;;;;;5129845;27;20062;-65
2021/10/23 12:36:54;;;;;;;5.30;1.30;;;2.20;99.90;;;;;;5147438;27;20026;-65
2021/10/23 12:39:25;;;;;;;3.15;1.10;;;2.10;99.90;;;;;;5142866;27;20043;-65
2021/10/23 12:41:51;;;;;;;2.70;1.02;;;3.30;99.90;;;;;;5136887;27;20030;-66
2021/10/23 12:44:19;;;;;;;3.58;0.90;;;3.60;99.90;;;;;;5146784;27;20019;-66
2021/10/23 12:46:45;;;;;;;1.85;1.00;;;3.30;99.90;;;;;;5152742;27;20023;-66
2021/10/23 12:49:11;;;;;;;4.53;0.95;;;3.00;99.90;;;;;;5150914;27;20018;-66
2021/10/23 12:51:37;;;;;;;2.85;0.90;;;2.70;99.90;;;;;;5141144;27;20039;-66
2021/10/23 12:54:04;;;;;;;1.52;0.88;;;2.40;99.90;;;;;;5134011;27;20023;-65
2021/10/23 12:56:31;;;;;;;1.98;1.00;;;2.20;99.90;;;;;;5133095;27;20418;-65
2021/10/23 12:58:56;;;;;;;2.42;0.93;;;2.10;99.90;;;;;;5132868;27;20050;-67
2021/10/23 13:01:23;;;;;;;2.95;1.08;;;2.00;99.90;;;;;;5145637;27;20054;-67
2021/10/23 13:03:49;;;;;;;1.40;0.73;;;1.90;99.90;;;;;;5153959;27;20035;-66
2021/10/23 13:06:14;;;;;;;3.05;0.88;;;1.90;99.90;;;;;;5153974;27;20095;-67
2021/10/23 13:08:41;;;;;;;1.00;0.85;;;1.80;99.90;;;;;;5154035;27;20358;-67
2021/10/23 13:11:08;;;;;;;3.08;0.90;;;1.70;99.90;;;;;;5150259;27;20058;-67
2021/10/23 13:13:36;;;;;;;0.68;0.68;;;1.70;99.90;;;;;;5147690;27;20029;-67
2021/10/23 13:16:02;;;;;;;1.23;0.80;;;1.60;99.90;;;;;;5153582;27;20105;-66
2021/10/23 13:18:34;;;;;;;2.95;1.08;;;1.60;99.90;;;;;;5153916;27;20374;-67
2021/10/23 13:21:01;;;;;;;1.42;0.73;;;1.50;99.90;;;;;;5152439;27;20097;-67
2021/10/23 13:23:27;;;;;;;2.75;0.90;;;1.50;99.90;;;;;;5153963;27;20106;-67
2021/10/23 13:25:53;;;;;;;0.65;0.65;;;1.40;99.90;;;;;;5153739;27;20448;-67
2021/10/23 13:28:19;;;;;;;2.63;0.90;;;1.40;99.90;;;;;;5153619;27;20114;-66
2021/10/23 13:30:44;;;;;;;3.13;0.90;;;1.50;99.90;;;;;;5153983;27;20102;-67
2021/10/23 13:33:11;;;;;;;1.55;0.85;;;1.50;99.90;;;;;;5153600;27;20482;-67
2021/10/23 13:35:37;;;;;;;1.50;1.00;;;1.50;99.90;;;;;;5153546;27;20037;-67
2021/10/23 13:38:03;;;;;;;2.03;1.00;;;1.60;99.90;;;;;;5153719;27;20027;-66